createdAt,value
2023-02-26T00:01:38.679Z,101592.09
2023-02-26T00:04:08.095Z,101594.50
2023-02-26T00:06:39.603Z,101594.97
2023-02-26T00:09:07.728Z,101598.06
2023-02-26T00:11:36.231Z,101601.88
2023-02-26T00:14:04.649Z,101606.88
2023-02-26T00:16:34.401Z,101608.06
2023-02-26T00:19:04.267Z,101609.88
2023-02-26T00:21:33.661Z,101617.78
2023-02-26T00:24:03.155Z,101619.94
2023-02-26T00:26:32.233Z,101624.19
2023-02-26T00:29:00.956Z,101633.56
2023-02-26T00:31:29.505Z,101641.22
2023-02-26T00:33:58.671Z,101643.06
2023-02-26T00:36:33.782Z,101640.19
2023-02-26T00:39:09.008Z,101651.47
2023-02-26T00:41:38.967Z,101662.47
2023-02-26T00:44:07.450Z,101659.06
2023-02-26T00:46:42.567Z,101656.75
2023-02-26T00:49:18.147Z,101659.81
2023-02-26T00:51:50.291Z,101666.53
2023-02-26T00:54:21.856Z,101665.38
2023-02-26T00:56:50.007Z,101672.25
2023-02-26T00:59:18.313Z,101673.41
2023-02-26T01:01:46.457Z,101672.31
2023-02-26T01:04:15.557Z,101681.94
2023-02-26T01:06:46.665Z,101677.84
2023-02-26T01:09:21.576Z,101687.28
2023-02-26T01:11:49.967Z,101692.50
2023-02-26T01:14:18.460Z,101691.47
2023-02-26T01:16:52.245Z,101693.00
2023-02-26T01:19:28.054Z,101698.09
2023-02-26T01:22:01.677Z,101693.47
2023-02-26T01:24:32.499Z,101707.38
2023-02-26T01:27:00.616Z,101696.13
2023-02-26T01:29:28.792Z,101705.28
2023-02-26T01:32:03.326Z,101708.88
2023-02-26T01:34:36.483Z,101712.13
2023-02-26T01:37:12.969Z,101723.19
2023-02-26T01:39:46.441Z,101723.00
2023-02-26T01:42:17.928Z,101726.16
2023-02-26T01:44:57.398Z,101725.56
2023-02-26T01:47:30.460Z,101727.19
2023-02-26T01:49:58.602Z,101732.34
2023-02-26T01:53:05.728Z,101730.66
2023-02-26T01:55:35.024Z,101728.66
2023-02-26T01:58:03.515Z,101727.09
2023-02-26T02:00:31.942Z,101737.53
2023-02-26T02:02:59.914Z,101732.34
2023-02-26T02:05:30.578Z,101743.59
2023-02-26T02:07:58.985Z,101740.34
2023-02-26T02:10:26.992Z,101744.50
2023-02-26T02:13:04.822Z,101748.13
2023-02-26T02:15:39.254Z,101754.09
2023-02-26T02:18:13.862Z,101758.53
2023-02-26T02:21:06.966Z,101762.75
2023-02-26T02:23:39.004Z,101769.91
2023-02-26T02:26:45.724Z,101770.06
2023-02-26T02:29:29.701Z,101777.25
2023-02-26T02:32:00.541Z,101782.56
2023-02-26T02:34:31.565Z,101783.44
2023-02-26T02:37:01.195Z,101781.72
2023-02-26T02:39:31.275Z,101787.03
2023-02-26T02:42:01.944Z,101797.06
2023-02-26T02:44:31.293Z,101789.94
2023-02-26T02:47:01.183Z,101792.50
2023-02-26T02:49:34.620Z,101800.34
2023-02-26T02:52:06.879Z,101811.13
2023-02-26T02:54:37.865Z,101811.34
2023-02-26T02:57:09.408Z,101813.22
2023-02-26T02:59:41.077Z,101818.69
2023-02-26T03:02:15.415Z,101827.41
2023-02-26T03:04:43.997Z,101824.53
2023-02-26T03:07:12.387Z,101825.56
2023-02-26T03:09:40.356Z,101832.66
2023-02-26T03:12:08.314Z,101835.00
2023-02-26T03:14:36.598Z,101838.66
2023-02-26T03:17:17.061Z,101845.63
2023-02-26T03:19:51.088Z,101847.56
2023-02-26T03:22:22.009Z,101843.47
2023-02-26T03:24:52.880Z,101846.28
2023-02-26T03:27:24.470Z,101854.19
2023-02-26T03:29:56.156Z,101857.66
2023-02-26T03:32:29.942Z,101858.69
2023-02-26T03:35:01.669Z,101860.66
2023-02-26T03:37:35.368Z,101866.91
2023-02-26T03:40:06.232Z,101867.72
2023-02-26T03:42:37.795Z,101872.94
2023-02-26T03:45:09.020Z,101879.25
2023-02-26T03:47:40.027Z,101877.53
2023-02-26T03:50:09.449Z,101887.97
2023-02-26T03:52:39.854Z,101890.84
2023-02-26T03:55:11.233Z,101897.00
2023-02-26T03:57:39.368Z,101892.00
2023-02-26T04:00:10.591Z,101902.78
2023-02-26T04:02:44.211Z,101901.88
2023-02-26T04:05:14.671Z,101900.13
2023-02-26T04:07:42.904Z,101907.41
2023-02-26T04:10:11.914Z,101915.97
2023-02-26T04:12:39.843Z,101920.47
2023-02-26T04:15:09.121Z,101922.72
2023-02-26T04:17:37.042Z,101929.84
2023-02-26T04:20:09.974Z,101927.34
2023-02-26T04:22:38.244Z,101932.69
2023-02-26T04:25:07.163Z,101933.28
2023-02-26T04:27:35.042Z,101939.63
2023-02-26T04:30:02.980Z,101948.72
2023-02-26T04:32:30.975Z,101948.63
2023-02-26T04:34:58.985Z,101947.88
2023-02-26T04:37:28.237Z,101953.84
2023-02-26T04:39:56.148Z,101963.78
2023-02-26T04:42:24.068Z,101956.00
2023-02-26T04:44:52.028Z,101963.91
2023-02-26T04:47:19.909Z,101971.44
2023-02-26T04:49:47.817Z,101962.50
2023-02-26T04:52:15.894Z,101974.34
2023-02-26T04:54:45.188Z,101970.69
2023-02-26T04:57:13.116Z,101983.56
2023-02-26T04:59:40.987Z,101983.81
2023-02-26T05:02:08.945Z,101993.94
2023-02-26T05:04:36.869Z,101993.16
2023-02-26T05:07:04.969Z,101995.50
2023-02-26T05:09:32.875Z,102004.47
2023-02-26T05:12:02.139Z,101995.59
2023-02-26T05:14:30.133Z,102001.59
2023-02-26T05:16:58.017Z,102008.84
2023-02-26T05:19:25.945Z,102008.63
2023-02-26T05:21:53.916Z,102007.22
2023-02-26T05:24:21.995Z,102009.56
2023-02-26T05:26:49.933Z,102009.84
2023-02-26T05:29:19.580Z,102011.50
2023-02-26T05:31:47.571Z,102017.78
2023-02-26T05:34:15.567Z,102025.78
2023-02-26T05:36:43.503Z,102032.25
2023-02-26T05:39:11.825Z,102029.06
2023-02-26T05:41:39.747Z,102039.00
2023-02-26T05:44:09.226Z,102033.81
2023-02-26T05:46:38.634Z,102035.84
2023-02-26T05:49:06.611Z,102035.44
2023-02-26T05:51:34.609Z,102040.75
2023-02-26T05:54:02.531Z,102045.13
2023-02-26T05:56:30.400Z,102041.84
2023-02-26T05:58:58.563Z,102055.88
2023-02-26T06:01:26.457Z,102052.72
2023-02-26T06:03:55.733Z,102065.69
2023-02-26T06:06:25.821Z,102067.69
2023-02-26T06:08:53.898Z,102065.28
2023-02-26T06:11:22.109Z,102068.72
2023-02-26T06:13:50.069Z,102073.50
2023-02-26T06:16:18.201Z,102082.44
2023-02-26T06:18:46.178Z,102077.91
2023-02-26T06:21:15.599Z,102082.53
2023-02-26T06:23:43.561Z,102088.31
2023-02-26T06:26:11.495Z,102093.69
2023-02-26T06:28:39.412Z,102096.53
2023-02-26T06:31:07.354Z,102096.34
2023-02-26T06:33:35.300Z,102099.72
2023-02-26T06:36:03.226Z,102105.00
2023-02-26T06:38:32.559Z,102106.88
2023-02-26T06:41:00.471Z,102109.47
2023-02-26T06:43:28.648Z,102116.38
2023-02-26T06:45:59.084Z,102116.47
2023-02-26T06:48:27.099Z,102118.22
2023-02-26T06:50:54.978Z,102127.03
2023-02-26T06:53:22.938Z,102130.53
2023-02-26T06:55:53.586Z,102127.03
2023-02-26T06:58:22.170Z,102129.59
2023-02-26T07:00:50.168Z,102131.41
2023-02-26T07:03:19.101Z,102142.88
2023-02-26T07:05:47.420Z,102145.47
2023-02-26T07:08:15.802Z,102146.28
2023-02-26T07:10:46.222Z,102150.72
2023-02-26T07:13:15.508Z,102149.91
2023-02-26T07:15:45.978Z,102154.09
2023-02-26T07:18:14.249Z,102157.66
2023-02-26T07:20:42.971Z,102163.03
2023-02-26T07:23:11.081Z,102160.31
2023-02-26T07:25:39.003Z,102161.16
2023-02-26T07:28:07.032Z,102160.22
2023-02-26T07:30:36.635Z,102161.94
2023-02-26T07:33:04.693Z,102171.66
2023-02-26T07:35:32.635Z,102183.97
2023-02-26T07:38:00.526Z,102184.91
2023-02-26T07:40:28.559Z,102186.63
2023-02-26T07:42:56.460Z,102189.28
2023-02-26T07:45:24.573Z,102186.63
2023-02-26T07:47:53.985Z,102188.31
2023-02-26T07:50:24.917Z,102194.47
2023-02-26T07:52:53.140Z,102189.03
2023-02-26T07:55:21.512Z,102203.06
2023-02-26T07:57:50.225Z,102200.31
2023-02-26T08:00:19.397Z,102204.59
2023-02-26T08:02:47.840Z,102205.34
2023-02-26T08:05:17.289Z,102209.66
2023-02-26T08:07:58.737Z,102210.41
2023-02-26T08:10:26.627Z,102217.38
2023-02-26T08:12:54.568Z,102211.19
2023-02-26T08:15:22.685Z,102218.09
2023-02-26T08:17:53.213Z,102206.44
2023-02-26T08:20:22.544Z,102208.97
2023-02-26T08:22:51.923Z,102207.13
2023-02-26T08:25:20.123Z,102215.81
2023-02-26T08:27:48.023Z,102228.09
2023-02-26T08:30:16.289Z,102219.16
2023-02-26T08:32:46.044Z,102226.09
2023-02-26T08:35:14.029Z,102231.31
2023-02-26T08:37:43.380Z,102224.06
2023-02-26T08:40:14.849Z,102244.16
2023-02-26T08:42:43.255Z,102241.53
2023-02-26T08:45:11.983Z,102235.09
2023-02-26T08:47:53.884Z,102236.66
2023-02-26T08:50:23.828Z,102244.53
2023-02-26T08:52:53.418Z,102244.47
2023-02-26T08:55:21.386Z,102254.00
2023-02-26T08:57:49.297Z,102245.75
2023-02-26T09:00:18.744Z,102254.72
2023-02-26T09:02:46.826Z,102262.50
2023-02-26T09:05:15.506Z,102270.34
2023-02-26T09:07:43.634Z,102272.09
2023-02-26T09:10:14.430Z,102280.84
2023-02-26T09:12:42.525Z,102285.66
2023-02-26T09:15:12.033Z,102286.88
2023-02-26T09:17:39.978Z,102297.84
2023-02-26T09:20:09.234Z,102303.13
2023-02-26T09:22:37.226Z,102304.09
2023-02-26T09:25:05.995Z,102296.13
2023-02-26T09:27:35.596Z,102296.88
2023-02-26T09:30:03.573Z,102308.38
2023-02-26T09:32:31.562Z,102312.91
2023-02-26T09:34:59.537Z,102318.16
2023-02-26T09:37:27.468Z,102312.41
2023-02-26T09:39:55.341Z,102312.56
2023-02-26T09:42:33.240Z,102313.31
2023-02-26T09:45:03.082Z,102313.03
2023-02-26T09:47:41.622Z,102313.56
2023-02-26T09:50:16.404Z,102304.88
2023-02-26T09:52:46.828Z,102316.53
2023-02-26T09:55:17.677Z,102320.16
2023-02-26T09:57:47.182Z,102319.81
2023-02-26T10:00:24.940Z,102324.19
2023-02-26T10:03:01.598Z,102327.28
2023-02-26T10:05:36.634Z,102331.63
2023-02-26T10:08:07.780Z,102336.97
2023-02-26T10:10:41.909Z,102338.59
2023-02-26T10:13:20.783Z,102344.16
2023-02-26T10:15:51.209Z,102341.78
2023-02-26T10:18:22.149Z,102346.38
2023-02-26T10:20:55.912Z,102347.28
2023-02-26T10:23:28.688Z,102347.41
2023-02-26T10:26:03.329Z,102353.00
2023-02-26T10:28:39.483Z,102349.66
2023-02-26T10:31:15.193Z,102354.78
2023-02-26T10:33:48.948Z,102357.59
2023-02-26T10:36:21.023Z,102352.19
2023-02-26T10:38:51.428Z,102358.13
2023-02-26T10:41:22.029Z,102360.13
2023-02-26T10:43:52.696Z,102360.88
2023-02-26T10:46:28.256Z,102352.47
2023-02-26T10:49:10.529Z,102366.16
2023-02-26T10:51:39.883Z,102371.50
2023-02-26T10:54:16.850Z,102368.47
2023-02-26T10:56:44.998Z,102360.22
2023-02-26T10:59:13.257Z,102363.84
2023-02-26T11:01:43.914Z,102368.94
2023-02-26T11:04:14.655Z,102379.09
2023-02-26T11:06:47.623Z,102379.19
2023-02-26T11:09:22.051Z,102381.06
2023-02-26T11:11:53.072Z,102378.91
2023-02-26T11:14:21.857Z,102385.00
2023-02-26T11:16:54.876Z,102381.50
2023-02-26T11:19:28.482Z,102378.31
2023-02-26T11:21:56.682Z,102379.34
2023-02-26T11:24:31.930Z,102382.69
2023-02-26T11:27:04.269Z,102391.72
2023-02-26T11:29:38.431Z,102387.28
2023-02-26T11:32:11.571Z,102381.97
2023-02-26T11:34:40.478Z,102383.72
2023-02-26T11:37:08.376Z,102385.31
2023-02-26T11:39:37.693Z,102380.84
2023-02-26T11:42:06.218Z,102390.59
2023-02-26T11:44:37.741Z,102393.09
2023-02-26T11:47:09.260Z,102391.22
2023-02-26T11:49:37.319Z,102388.53
2023-02-26T11:52:16.969Z,102385.97
2023-02-26T11:54:46.658Z,102386.72
2023-02-26T11:57:19.020Z,102384.53
2023-02-26T11:59:51.060Z,102375.91
2023-02-26T12:02:24.282Z,102384.97
2023-02-26T12:04:54.569Z,102380.59
2023-02-26T12:07:23.316Z,102375.47
2023-02-26T12:09:51.238Z,102367.84
2023-02-26T12:12:46.783Z,102366.59
2023-02-26T12:15:30.384Z,102377.88
2023-02-26T12:18:20.750Z,102373.81
2023-02-26T12:20:56.363Z,102375.50
2023-02-26T12:23:49.932Z,102375.69
2023-02-26T12:26:26.074Z,102383.78
2023-02-26T12:29:19.354Z,102379.34
2023-02-26T12:32:02.475Z,102382.69
2023-02-26T12:35:24.819Z,102379.56
2023-02-26T12:38:02.016Z,102369.78
2023-02-26T12:40:45.952Z,102381.69
2023-02-26T12:43:19.686Z,102381.69
2023-02-26T12:45:55.855Z,102376.28
2023-02-26T12:48:37.881Z,102371.81
2023-02-26T12:51:14.485Z,102372.25
2023-02-26T12:53:54.568Z,102381.31
2023-02-26T12:56:42.538Z,102386.44
2023-02-26T12:59:39.249Z,102377.22
2023-02-26T13:02:25.244Z,102380.56
2023-02-26T13:05:18.719Z,102379.97
2023-02-26T13:08:06.111Z,102383.88
2023-02-26T13:10:44.875Z,102389.06
2023-02-26T13:13:40.911Z,102380.44
2023-02-26T13:16:19.680Z,102379.38
2023-02-26T13:18:52.886Z,102370.81
2023-02-26T13:21:25.279Z,102374.00
2023-02-26T13:23:57.480Z,102365.66
2023-02-26T13:26:27.894Z,102368.53
2023-02-26T13:28:58.740Z,102372.00
2023-02-26T13:31:29.628Z,102374.59
2023-02-26T13:34:02.720Z,102370.25
2023-02-26T13:36:30.781Z,102367.78
2023-02-26T13:39:12.173Z,102364.75
2023-02-26T13:41:48.043Z,102364.72
2023-02-26T13:44:30.170Z,102354.56
2023-02-26T13:47:16.904Z,102359.38
2023-02-26T13:49:53.352Z,102359.66
2023-02-26T13:52:26.557Z,102361.47
2023-02-26T13:54:55.214Z,102355.72
2023-02-26T13:57:39.054Z,102361.13
2023-02-26T14:00:26.288Z,102360.13
2023-02-26T14:02:56.111Z,102359.41
2023-02-26T14:05:54.770Z,102361.34
2023-02-26T14:08:41.659Z,102367.84
2023-02-26T14:11:29.178Z,102362.16
2023-02-26T14:14:25.445Z,102363.84
2023-02-26T14:17:20.573Z,102357.09
2023-02-26T14:20:22.833Z,102361.16
2023-02-26T14:22:54.982Z,102368.25
2023-02-26T14:25:35.182Z,102370.69
2023-02-26T14:28:35.213Z,102367.44
2023-02-26T14:31:15.415Z,102370.53
2023-02-26T14:33:46.824Z,102366.00
2023-02-26T14:36:19.778Z,102360.25
2023-02-26T14:38:49.671Z,102356.00
2023-02-26T14:41:27.465Z,102360.44
2023-02-26T14:44:01.590Z,102352.44
2023-02-26T14:46:31.495Z,102366.41
2023-02-26T14:48:59.396Z,102362.06
2023-02-26T14:51:35.128Z,102361.13
2023-02-26T14:54:27.815Z,102367.13
2023-02-26T14:57:03.640Z,102372.75
2023-02-26T15:00:12.752Z,102370.25
2023-02-26T15:02:54.969Z,102371.47
2023-02-26T15:05:39.418Z,102371.47
2023-02-26T15:08:33.088Z,102375.03
2023-02-26T15:11:31.723Z,102378.28
2023-02-26T15:14:19.812Z,102380.84
2023-02-26T15:16:55.360Z,102383.09
2023-02-26T15:19:38.988Z,102384.47
2023-02-26T15:22:18.952Z,102383.84
2023-02-26T15:24:47.443Z,102383.81
2023-02-26T15:27:17.961Z,102387.53
2023-02-26T15:29:46.266Z,102384.50
2023-02-26T15:32:24.929Z,102386.22
2023-02-26T15:35:00.868Z,102391.69
2023-02-26T15:37:33.656Z,102387.53
2023-02-26T15:40:04.816Z,102402.16
2023-02-26T15:42:37.527Z,102389.41
2023-02-26T15:45:11.220Z,102402.47
2023-02-26T15:47:39.314Z,102398.16
2023-02-26T15:50:11.202Z,102403.50
2023-02-26T15:52:39.228Z,102406.56
2023-02-26T15:55:08.560Z,102411.44
2023-02-26T15:57:37.133Z,102411.06
2023-02-26T16:00:10.485Z,102411.78
2023-02-26T16:02:38.596Z,102409.53
2023-02-26T16:05:09.100Z,102418.88
2023-02-26T16:07:37.116Z,102423.22
2023-02-26T16:10:08.064Z,102420.44
2023-02-26T16:12:38.662Z,102417.47
2023-02-26T16:15:12.753Z,102425.25
2023-02-26T16:17:43.830Z,102429.72
2023-02-26T16:20:18.206Z,102423.69
2023-02-26T16:22:50.979Z,102432.88
2023-02-26T16:25:24.830Z,102433.75
2023-02-26T16:27:58.056Z,102438.25
2023-02-26T16:30:36.252Z,102446.69
2023-02-26T16:33:05.561Z,102447.22
2023-02-26T16:35:39.180Z,102444.13
2023-02-26T16:38:14.224Z,102455.19
2023-02-26T16:40:44.659Z,102456.72
2023-02-26T16:43:35.556Z,102465.00
2023-02-26T16:46:05.612Z,102474.66
2023-02-26T16:48:38.820Z,102469.88
2023-02-26T16:51:12.217Z,102473.78
2023-02-26T16:53:45.196Z,102474.19
2023-02-26T16:56:16.794Z,102477.69
2023-02-26T16:58:45.636Z,102471.78
2023-02-26T17:01:16.398Z,102481.59
2023-02-26T17:03:49.359Z,102483.44
2023-02-26T17:06:20.431Z,102488.34
2023-02-26T17:08:52.281Z,102499.00
2023-02-26T17:11:24.988Z,102496.63
2023-02-26T17:14:05.880Z,102503.09
2023-02-26T17:16:33.822Z,102504.31
2023-02-26T17:19:02.711Z,102515.75
2023-02-26T17:21:32.718Z,102514.22
2023-02-26T17:24:00.748Z,102517.63
2023-02-26T17:26:29.480Z,102521.53
2023-02-26T17:28:57.787Z,102524.19
2023-02-26T17:31:26.451Z,102523.53
2023-02-26T17:33:54.636Z,102522.69
2023-02-26T17:36:22.533Z,102523.00
2023-02-26T17:38:51.982Z,102523.16
2023-02-26T17:41:20.275Z,102528.44
2023-02-26T17:43:48.177Z,102527.69
2023-02-26T17:46:16.264Z,102528.75
2023-02-26T17:48:44.197Z,102533.53
2023-02-26T17:51:16.001Z,102543.22
2023-02-26T17:53:46.443Z,102534.50
2023-02-26T17:56:20.589Z,102538.00
2023-02-26T17:58:48.717Z,102539.84
2023-02-26T18:01:16.977Z,102534.78
2023-02-26T18:03:45.100Z,102541.72
2023-02-26T18:06:15.408Z,102544.53
2023-02-26T18:08:44.730Z,102545.94
2023-02-26T18:11:13.711Z,102544.88
2023-02-26T18:13:43.342Z,102553.97
2023-02-26T18:16:17.094Z,102546.03
2023-02-26T18:18:45.107Z,102554.94
2023-02-26T18:21:14.855Z,102557.66
2023-02-26T18:23:42.793Z,102551.66
2023-02-26T18:26:11.684Z,102560.41
2023-02-26T18:28:39.806Z,102555.00
2023-02-26T18:31:10.321Z,102554.22
2023-02-26T18:33:40.551Z,102555.22
2023-02-26T18:36:10.787Z,102552.53
2023-02-26T18:38:38.675Z,102551.69
2023-02-26T18:41:06.690Z,102554.56
2023-02-26T18:43:34.681Z,102559.91
2023-02-26T18:46:02.700Z,102561.97
2023-02-26T18:48:32.123Z,102567.22
2023-02-26T18:51:00.485Z,102560.16
2023-02-26T18:53:28.395Z,102564.69
2023-02-26T18:55:58.200Z,102574.50
2023-02-26T18:58:26.407Z,102576.59
2023-02-26T19:00:54.305Z,102582.88
2023-02-26T19:03:22.212Z,102580.31
2023-02-26T19:05:58.784Z,102582.16
2023-02-26T19:08:26.746Z,102583.16
2023-02-26T19:10:55.221Z,102582.41
2023-02-26T19:13:23.997Z,102589.50
2023-02-26T19:15:52.136Z,102580.78
2023-02-26T19:18:20.667Z,102580.84
2023-02-26T19:20:48.820Z,102577.56
2023-02-26T19:23:18.621Z,102583.91
2023-02-26T19:25:46.566Z,102587.78
2023-02-26T19:28:14.687Z,102587.59
2023-02-26T19:30:42.676Z,102591.94
2023-02-26T19:33:10.671Z,102587.59
2023-02-26T19:35:38.627Z,102589.41
2023-02-26T19:38:06.817Z,102589.56
2023-02-26T19:40:36.118Z,102593.94
2023-02-26T19:43:04.194Z,102591.91
2023-02-26T19:45:32.132Z,102598.78
2023-02-26T19:48:00.372Z,102593.84
2023-02-26T19:50:28.331Z,102596.69
2023-02-26T19:52:58.428Z,102601.13
2023-02-26T19:55:26.306Z,102603.88
2023-02-26T19:57:55.662Z,102605.72
2023-02-26T20:00:24.290Z,102603.94
2023-02-26T20:02:52.280Z,102603.94
2023-02-26T20:05:20.574Z,102609.34
2023-02-26T20:07:48.770Z,102613.66
2023-02-26T20:10:17.167Z,102611.78
2023-02-26T20:12:46.115Z,102612.78
2023-02-26T20:15:15.479Z,102626.75
2023-02-26T20:17:43.820Z,102617.75
2023-02-26T20:20:12.788Z,102634.75
2023-02-26T20:22:40.759Z,102630.31
2023-02-26T20:25:09.450Z,102625.94
2023-02-26T20:27:37.474Z,102629.56
2023-02-26T20:30:06.568Z,102631.44
2023-02-26T20:32:36.028Z,102633.44
2023-02-26T20:35:04.369Z,102637.25
2023-02-26T20:37:32.333Z,102646.47
2023-02-26T20:40:00.253Z,102643.88
2023-02-26T20:42:28.145Z,102646.81
2023-02-26T20:44:56.040Z,102649.84
2023-02-26T20:47:24.045Z,102648.53
2023-02-26T20:49:53.320Z,102658.84
2023-02-26T20:52:21.270Z,102652.66
2023-02-26T20:54:49.167Z,102649.16
2023-02-26T20:57:17.063Z,102649.88
2023-02-26T20:59:44.994Z,102651.66
2023-02-26T21:02:15.523Z,102650.09
2023-02-26T21:04:43.620Z,102664.22
2023-02-26T21:07:21.958Z,102663.59
2023-02-26T21:09:50.227Z,102658.38
2023-02-26T21:12:18.844Z,102657.53
2023-02-26T21:14:46.881Z,102661.03
2023-02-26T21:17:15.084Z,102667.03
2023-02-26T21:19:43.014Z,102670.47
2023-02-26T21:22:11.074Z,102674.84
2023-02-26T21:24:40.420Z,102675.97
2023-02-26T21:27:08.473Z,102679.69
2023-02-26T21:29:36.708Z,102670.72
2023-02-26T21:32:05.426Z,102668.69
2023-02-26T21:34:35.019Z,102680.25
2023-02-26T21:37:03.440Z,102673.13
2023-02-26T21:39:32.412Z,102674.22
2023-02-26T21:42:03.873Z,102679.69
2023-02-26T21:44:33.238Z,102691.97
2023-02-26T21:47:01.271Z,102690.75
2023-02-26T21:49:31.993Z,102697.91
2023-02-26T21:52:00.242Z,102690.34
2023-02-26T21:54:28.416Z,102693.75
2023-02-26T21:56:56.595Z,102691.88
2023-02-26T21:59:26.151Z,102705.34
2023-02-26T22:01:56.644Z,102707.91
2023-02-26T22:04:24.702Z,102703.41
2023-02-26T22:06:52.859Z,102712.28
2023-02-26T22:09:21.329Z,102710.28
2023-02-26T22:11:49.369Z,102705.16
2023-02-26T22:14:17.695Z,102706.16
2023-02-26T22:16:47.251Z,102710.56
2023-02-26T22:19:15.204Z,102707.97
2023-02-26T22:21:43.164Z,102710.88
2023-02-26T22:24:11.134Z,102711.88
2023-02-26T22:26:39.029Z,102716.44
2023-02-26T22:29:07.016Z,102712.91
2023-02-26T22:31:34.924Z,102715.53
2023-02-26T22:34:04.264Z,102709.28
2023-02-26T22:36:32.490Z,102717.22
2023-02-26T22:39:00.444Z,102718.06
2023-02-26T22:41:28.362Z,102725.16
2023-02-26T22:43:57.972Z,102721.66
2023-02-26T22:46:28.333Z,102730.47
2023-02-26T22:48:56.399Z,102728.78
2023-02-26T22:51:26.070Z,102725.31
2023-02-26T22:53:54.211Z,102738.59
2023-02-26T22:56:22.121Z,102731.50
2023-02-26T22:58:50.063Z,102728.81
2023-02-26T23:01:18.098Z,102727.91
2023-02-26T23:03:46.234Z,102735.03
2023-02-26T23:06:14.689Z,102743.91
2023-02-26T23:08:44.015Z,102745.66
2023-02-26T23:11:12.056Z,102740.34
2023-02-26T23:13:40.040Z,102743.88
2023-02-26T23:16:09.994Z,102739.44
2023-02-26T23:18:39.361Z,102746.44
2023-02-26T23:21:08.217Z,102735.81
2023-02-26T23:23:36.181Z,102742.03
2023-02-26T23:26:05.829Z,102749.25
2023-02-26T23:28:33.916Z,102748.38
2023-02-26T23:31:01.998Z,102747.53
2023-02-26T23:33:29.960Z,102744.06
2023-02-26T23:35:58.048Z,102751.13
2023-02-26T23:38:26.028Z,102748.41
2023-02-26T23:40:53.985Z,102752.72
2023-02-26T23:43:23.340Z,102751.84
2023-02-26T23:45:51.321Z,102746.50
2023-02-26T23:48:19.244Z,102759.78
2023-02-26T23:50:49.517Z,102761.53
2023-02-26T23:53:17.464Z,102761.56
2023-02-26T23:55:45.427Z,102762.47
2023-02-26T23:58:13.323Z,102764.19
